createdAt,value
2019-02-08T00:02:00.181Z,4.84
2019-02-08T00:08:08.853Z,4.83
2019-02-08T00:14:14.298Z,4.90
2019-02-08T00:20:21.649Z,5.10
2019-02-08T00:26:26.406Z,5.14
2019-02-08T00:32:30.968Z,5.37
2019-02-08T00:38:35.607Z,5.20
2019-02-08T00:44:40.583Z,5.22
2019-02-08T00:50:45.389Z,5.19
2019-02-08T00:56:49.952Z,4.96
2019-02-08T01:02:56.344Z,4.79
2019-02-08T01:09:01.082Z,4.68
2019-02-08T01:15:10.030Z,4.30
2019-02-08T01:21:17.537Z,4.19
2019-02-08T01:27:22.252Z,4.18
2019-02-08T01:33:27.253Z,4.27
2019-02-08T01:39:32.102Z,4.22
2019-02-08T01:45:37.095Z,4.16
2019-02-08T01:51:41.839Z,4.15
2019-02-08T01:57:50.218Z,4.37
2019-02-08T02:03:54.922Z,4.22
2019-02-08T02:09:59.480Z,4.38
2019-02-08T02:16:04.937Z,4.60
2019-02-08T02:22:09.961Z,4.76
2019-02-08T02:28:14.988Z,4.63
2019-02-08T02:34:22.971Z,4.99
2019-02-08T02:40:28.210Z,4.99
2019-02-08T02:46:32.837Z,4.92
2019-02-08T02:52:37.741Z,5.09
2019-02-08T02:58:42.957Z,5.04
2019-02-08T03:04:47.540Z,4.95
2019-02-08T03:10:52.222Z,5.06
2019-02-08T03:16:56.874Z,5.10
2019-02-08T03:23:01.659Z,5.07
2019-02-08T03:29:06.731Z,5.16
2019-02-08T03:35:16.275Z,5.11
2019-02-08T03:41:21.226Z,5.13
2019-02-08T03:47:28.192Z,4.98
2019-02-08T03:53:32.749Z,4.78
2019-02-08T03:59:37.460Z,5.09
2019-02-08T04:05:42.685Z,4.81
2019-02-08T04:11:47.751Z,4.84
2019-02-08T04:17:52.631Z,4.86
2019-02-08T04:24:00.095Z,4.89
2019-02-08T04:30:11.340Z,5.03
2019-02-08T04:36:16.080Z,5.12
2019-02-08T04:42:20.714Z,5.01
2019-02-08T04:48:25.501Z,5.19
2019-02-08T04:54:37.890Z,5.23
2019-02-08T05:00:37.907Z,5.23
2019-02-08T05:06:44.979Z,5.05
2019-02-08T05:12:50.125Z,5.01
2019-02-08T05:18:54.693Z,5.06
2019-02-08T05:24:59.339Z,5.25
2019-02-08T05:31:04.079Z,5.02
2019-02-08T05:37:08.896Z,5.11
2019-02-08T05:43:13.976Z,4.89
2019-02-08T05:49:19.424Z,4.62
2019-02-08T05:55:32.538Z,4.75
2019-02-08T06:01:37.340Z,4.82
2019-02-08T06:07:44.268Z,4.67
2019-02-08T06:13:48.921Z,4.59
2019-02-08T06:19:53.540Z,4.53
2019-02-08T06:25:58.364Z,4.65
2019-02-08T06:32:03.138Z,4.66
2019-02-08T06:38:08.551Z,4.69
2019-02-08T06:44:13.793Z,4.93
2019-02-08T06:50:22.481Z,5.15
2019-02-08T06:56:44.756Z,4.93
2019-02-08T07:03:07.370Z,5.19
2019-02-08T07:09:13.985Z,5.25
2019-02-08T07:15:29.451Z,5.39
2019-02-08T07:21:35.674Z,5.14
2019-02-08T07:27:44.535Z,5.29
2019-02-08T07:33:50.828Z,5.42
2019-02-08T07:40:07.851Z,5.58
2019-02-08T07:46:27.361Z,5.73
2019-02-08T07:52:48.347Z,5.73
2019-02-08T07:59:10.941Z,6.00
2019-02-08T08:05:23.061Z,5.97
2019-02-08T08:11:35.125Z,6.33
2019-02-08T08:17:44.607Z,6.22
2019-02-08T08:23:52.656Z,6.39
2019-02-08T08:30:08.122Z,6.34
2019-02-08T08:36:23.193Z,6.54
2019-02-08T08:42:46.964Z,6.58
2019-02-08T08:48:58.685Z,6.63
2019-02-08T08:55:46.914Z,6.56
2019-02-08T09:02:12.248Z,6.53
2019-02-08T09:08:45.416Z,6.62
2019-02-08T09:15:19.875Z,6.68
2019-02-08T09:22:00.289Z,6.89
2019-02-08T09:28:26.780Z,6.86
2019-02-08T09:34:36.107Z,6.98
2019-02-08T09:41:34.870Z,6.94
2019-02-08T09:48:07.981Z,7.24
2019-02-08T09:54:46.384Z,7.27
2019-02-08T10:01:12.078Z,7.11
2019-02-08T10:07:30.077Z,7.17
2019-02-08T10:14:13.668Z,7.08
2019-02-08T10:20:40.456Z,7.11
2019-02-08T10:27:20.689Z,7.21
2019-02-08T10:34:04.394Z,7.14
2019-02-08T10:40:31.245Z,7.20
2019-02-08T10:47:14.374Z,7.10
2019-02-08T10:54:00.169Z,7.01
2019-02-08T11:00:45.191Z,7.20
2019-02-08T11:07:16.659Z,7.17
2019-02-08T11:13:31.615Z,7.21
2019-02-08T11:19:34.717Z,7.00
2019-02-08T11:25:39.675Z,7.00
2019-02-08T11:31:44.474Z,7.15
2019-02-08T11:37:49.171Z,7.32
2019-02-08T11:43:53.999Z,7.32
2019-02-08T11:50:03.327Z,7.18
2019-02-08T11:56:08.293Z,7.34
2019-02-08T12:02:12.929Z,7.49
2019-02-08T12:08:17.912Z,7.35
2019-02-08T12:14:22.529Z,7.41
2019-02-08T12:20:27.150Z,7.51
2019-02-08T12:26:37.691Z,7.60
2019-02-08T12:32:38.811Z,7.83
2019-02-08T12:38:43.410Z,7.85
2019-02-08T12:44:48.121Z,7.86
2019-02-08T12:50:52.764Z,8.01
2019-02-08T12:56:57.395Z,8.22
2019-02-08T13:03:01.983Z,8.12
2019-02-08T13:09:10.224Z,8.11
2019-02-08T13:15:16.710Z,8.29
2019-02-08T13:21:21.333Z,8.27
2019-02-08T13:27:26.054Z,8.18
2019-02-08T13:33:30.772Z,8.16
2019-02-08T13:39:35.922Z,8.32
2019-02-08T13:45:42.533Z,8.28
2019-02-08T13:51:47.120Z,8.00
2019-02-08T13:57:51.861Z,7.99
2019-02-08T14:03:56.593Z,7.99
2019-02-08T14:10:02.190Z,8.01
2019-02-08T14:16:07.264Z,7.99
2019-02-08T14:22:11.958Z,7.79
2019-02-08T14:28:16.543Z,7.66
2019-02-08T14:34:21.103Z,7.81
2019-02-08T14:40:28.826Z,7.93
2019-02-08T14:46:33.735Z,7.88
2019-02-08T14:52:38.351Z,7.87
2019-02-08T14:58:42.977Z,7.98
2019-02-08T15:04:48.499Z,7.97
2019-02-08T15:10:54.299Z,7.97
2019-02-08T15:16:58.946Z,8.12
2019-02-08T15:23:04.060Z,8.16
2019-02-08T15:29:08.856Z,8.11
2019-02-08T15:35:18.528Z,7.96
2019-02-08T15:41:23.163Z,8.00
2019-02-08T15:47:28.005Z,7.84
2019-02-08T15:53:34.086Z,7.79
2019-02-08T15:59:39.069Z,7.66
2019-02-08T16:05:43.783Z,7.73
2019-02-08T16:17:59.224Z,7.74
2019-02-08T16:24:06.403Z,7.73
2019-02-08T16:30:21.512Z,7.62
2019-02-08T16:36:26.140Z,7.62
2019-02-08T16:42:30.901Z,7.71
2019-02-08T16:48:37.180Z,7.57
2019-02-08T16:54:41.866Z,7.56
2019-02-08T17:00:49.321Z,7.61
2019-02-08T17:06:54.119Z,7.80
2019-02-08T17:12:59.226Z,7.75
2019-02-08T17:19:04.174Z,7.49
2019-02-08T17:25:08.952Z,7.47
2019-02-08T17:31:13.578Z,7.61
2019-02-08T17:37:18.140Z,7.81
2019-02-08T17:43:22.774Z,7.92
2019-02-08T17:49:27.320Z,8.03
2019-02-08T17:55:32.329Z,7.98
2019-02-08T18:01:37.393Z,7.94
2019-02-08T18:07:41.983Z,8.05
2019-02-08T18:13:46.701Z,8.07
2019-02-08T18:19:51.339Z,8.25
2019-02-08T18:25:55.952Z,8.10
2019-02-08T18:32:00.868Z,8.12
2019-02-08T18:38:06.337Z,8.22
2019-02-08T18:44:12.196Z,8.24
2019-02-08T18:50:21.228Z,8.08
2019-02-08T18:56:25.853Z,8.33
2019-02-08T19:02:30.827Z,8.10
2019-02-08T19:08:35.663Z,8.32
2019-02-08T19:14:40.411Z,8.36
2019-02-08T19:20:45.091Z,8.24
2019-02-08T19:26:49.650Z,8.24
2019-02-08T19:32:54.651Z,8.12
2019-02-08T19:38:59.405Z,8.25
2019-02-08T19:45:07.036Z,7.81
2019-02-08T19:51:11.655Z,8.07
2019-02-08T19:57:16.272Z,7.85
2019-02-08T20:03:20.826Z,7.74
2019-02-08T20:09:25.603Z,7.80
2019-02-08T20:15:31.922Z,7.71
2019-02-08T20:21:36.622Z,7.68
2019-02-08T20:27:41.404Z,7.62
2019-02-08T20:33:46.076Z,7.62
2019-02-08T20:39:50.783Z,7.74
2019-02-08T20:45:56.546Z,7.58
2019-02-08T20:52:01.317Z,7.52
2019-02-08T20:58:10.070Z,7.37
2019-02-08T21:04:14.879Z,7.48
2019-02-08T21:10:22.890Z,7.59
2019-02-08T21:16:27.466Z,7.41
2019-02-08T21:22:32.030Z,7.74
2019-02-08T21:28:36.914Z,7.77
2019-02-08T21:34:41.591Z,7.81
2019-02-08T21:40:46.405Z,7.91
2019-02-08T21:46:51.019Z,7.88
2019-02-08T21:52:57.041Z,7.76
2019-02-08T21:59:06.147Z,7.87
2019-02-08T22:05:13.622Z,7.80
2019-02-08T22:11:18.487Z,7.57
2019-02-08T22:23:34.005Z,7.78
2019-02-08T22:29:38.741Z,7.81
2019-02-08T22:35:43.379Z,7.87
2019-02-08T22:41:48.004Z,7.77
2019-02-08T22:47:54.554Z,7.97
2019-02-08T22:53:59.205Z,7.84
2019-02-08T23:00:06.448Z,7.85
2019-02-08T23:06:11.134Z,7.74
2019-02-08T23:12:15.747Z,7.75
2019-02-08T23:18:20.288Z,7.80
2019-02-08T23:24:24.835Z,7.87
2019-02-08T23:30:29.637Z,8.18
2019-02-08T23:36:34.304Z,7.86
2019-02-08T23:42:38.857Z,7.98
2019-02-08T23:48:50.127Z,7.95
2019-02-08T23:54:55.160Z,7.90
